Search for airport 
image banner adimage banner adimage banner ad
image banner ad

L04 - Holtville

Located in Holtville, United States

ICAO - L04, IATA -

Data provided by Airmate  

General information

Coordinates: N32°50'42" W115°16'7"
Elevation is 59 feet MSL.
Magnetic variation is 13° East
View others Airports in California

Operational data

Special qualification required
Current time UTC:
Current local time:
METAR: MMML 240746Z 20003KT 10SM SKC 27/15 A2983
TAF: TAF MMML 240504Z 2406/2506 13005KT P6SM SKC BECMG 2417/2418 28015KT FM250300 30006KT P6SM SKC
View NOTAMs / SUP AIP / TFR affecting this airport [VIEW]
Communications frequencies: [VIEW]

Runways:

RWY identifierQFULength (ft)Width (ft)SurfaceLDA (ft)
086000150CONC
266000150CONC

Airport contact information

Address: Holtville United States

Satellite view of L04